This is the latest recevied weather packets stored in our database for station/object DG4MJS-10. If no packets are shown the sender has not sent any weather packets the latest 10 day(s).
| Time | Temp. | Humidity | Pressure | Rain* | Wind** | Luminosity | Snow |
|---|---|---|---|---|---|---|---|
| 1777815005 | 18.89° C | 44% | 1012.5 hPa | - | - | - | - |
| 1777814105 | 20° C | 38% | 1012.6 hPa | - | - | - | - |
| 1777813205 | 18.89° C | 44% | 1012.7 hPa | - | - | - | - |
| 1777812305 | 17.78° C | 47% | 1012.9 hPa | - | - | - | - |
| 1777811405 | 17.78° C | 46% | 1013 hPa | - | - | - | - |
| 1777810505 | 18.33° C | 44% | 1013 hPa | - | - | - | - |
| 1777809605 | 18.33° C | 47% | 1013.2 hPa | - | - | - | - |
| 1777808705 | 18.89° C | 44% | 1013.3 hPa | - | - | - | - |
| 1777807804 | 17.78° C | 48% | 1013.5 hPa | - | - | - | - |
| 1777806904 | 17.78° C | 46% | 1013.5 hPa | - | - | - | - |
| 1777806004 | 17.78° C | 51% | 1013.8 hPa | - | - | - | - |
| 1777805104 | 17.22° C | 49% | 1013.8 hPa | - | - | - | - |
| 1777804204 | 16.11° C | 55% | 1014.1 hPa | - | - | - | - |
| 1777803306 | 16.67° C | 49% | 1014.2 hPa | - | - | - | - |
| 1777802406 | 15.56° C | 57% | 1014.4 hPa | - | - | - | - |
| 1777801506 | 16.11° C | 55% | 1014.6 hPa | - | - | - | - |
| 1777800606 | 16.67° C | 52% | 1014.8 hPa | - | - | - | - |
| 1777799706 | 15.56° C | 56% | 1014.9 hPa | - | - | - | - |
| 1777798806 | 15.56° C | 57% | 1015 hPa | - | - | - | - |
| 1777797906 | 15° C | 57% | 1015.1 hPa | - | - | - | - |
| 1777797006 | 15.56° C | 55% | 1015.1 hPa | - | - | - | - |
| 1777796106 | 15.56° C | 56% | 1015.1 hPa | - | - | - | - |
| 1777795206 | 15° C | 59% | 1015.2 hPa | - | - | - | - |
| 1777794306 | 15° C | 58% | 1015.3 hPa | - | - | - | - |
| 1777793405 | 14.44° C | 58% | 1015.3 hPa | - | - | - | - |
* Rain since midnight (hover to see other rain measurements)
** Current wind speed in m/s (hover to see current wind gust speed)